createdAt,value
2019-06-01T00:01:32.857Z,101133.65
2019-06-01T00:04:03.845Z,101138.66
2019-06-01T00:06:34.527Z,101139.81
2019-06-01T00:09:08.016Z,101143.01
2019-06-01T00:11:39.443Z,101139.68
2019-06-01T00:14:12.286Z,101135.95
2019-06-01T00:16:44.419Z,101132.64
2019-06-01T00:19:15.719Z,101132.09
2019-06-01T00:21:47.406Z,101140.69
2019-06-01T00:24:18.451Z,101134.63
2019-06-01T00:26:49.884Z,101138.36
2019-06-01T00:29:20.666Z,101146.64
2019-06-01T00:31:52.212Z,101143.95
2019-06-01T00:34:23.306Z,101143.33
2019-06-01T00:36:54.272Z,101141.85
2019-06-01T00:39:25.222Z,101139.16
2019-06-01T00:41:55.931Z,101140.72
2019-06-01T00:44:26.602Z,101139.38
2019-06-01T00:46:57.617Z,101142.19
2019-06-01T00:49:28.573Z,101142.05
2019-06-01T00:51:59.265Z,101145.91
2019-06-01T00:54:29.928Z,101146.60
2019-06-01T00:57:00.905Z,101145.30
2019-06-01T00:59:31.701Z,101138.23
2019-06-01T01:02:02.733Z,101143.29
2019-06-01T01:04:33.417Z,101139.94
2019-06-01T01:07:04.160Z,101144.13
2019-06-01T01:09:35.192Z,101145.17
2019-06-01T01:12:06.281Z,101147.17
2019-06-01T01:14:37.020Z,101143.86
2019-06-01T01:17:07.968Z,101136.31
2019-06-01T01:19:39.928Z,101136.95
2019-06-01T01:22:10.867Z,101142.01
2019-06-01T01:24:41.598Z,101143.05
2019-06-01T01:27:12.265Z,101144.89
2019-06-01T01:29:42.970Z,101142.84
2019-06-01T01:32:13.947Z,101139.67
2019-06-01T01:34:44.994Z,101142.71
2019-06-01T01:37:15.704Z,101141.87
2019-06-01T01:39:47.932Z,101138.84
2019-06-01T01:42:18.767Z,101139.67
2019-06-01T01:44:50.523Z,101136.00
2019-06-01T01:47:23.175Z,101135.84
2019-06-01T01:49:54.281Z,101141.71
2019-06-01T01:52:25.514Z,101134.51
2019-06-01T01:54:56.821Z,101128.11
2019-06-01T01:57:27.862Z,101128.28
2019-06-01T01:59:59.454Z,101117.18
2019-06-01T02:02:30.178Z,101119.05
2019-06-01T02:05:02.193Z,101118.86
2019-06-01T02:07:34.065Z,101115.50
2019-06-01T02:10:11.122Z,101122.91
2019-06-01T02:12:41.811Z,101132.31
2019-06-01T02:15:12.894Z,101127.92
2019-06-01T02:17:43.596Z,101121.58
2019-06-01T02:20:14.946Z,101120.05
2019-06-01T02:22:45.932Z,101121.59
2019-06-01T02:25:16.707Z,101116.86
2019-06-01T02:27:47.772Z,101122.72
2019-06-01T02:30:19.635Z,101126.25
2019-06-01T02:32:50.295Z,101122.74
2019-06-01T02:35:21.295Z,101122.09
2019-06-01T02:37:52.332Z,101113.89
2019-06-01T02:40:25.449Z,101116.38
2019-06-01T02:42:57.226Z,101116.56
2019-06-01T02:45:29.305Z,101110.50
2019-06-01T02:48:01.559Z,101110.64
2019-06-01T02:50:33.097Z,101106.95
2019-06-01T02:53:05.678Z,101107.47
2019-06-01T02:55:36.496Z,101115.70
2019-06-01T02:58:07.481Z,101122.58
2019-06-01T03:00:58.908Z,101120.58
2019-06-01T03:03:29.931Z,101115.23
2019-06-01T03:06:05.598Z,101115.30
2019-06-01T03:08:38.342Z,101118.95
2019-06-01T03:11:14.165Z,101116.28
2019-06-01T03:13:48.863Z,101125.82
2019-06-01T03:16:24.839Z,101127.17
2019-06-01T03:18:59.693Z,101127.98
2019-06-01T03:21:32.981Z,101130.65
2019-06-01T03:24:08.210Z,101128.30
2019-06-01T03:26:46.068Z,101129.98
2019-06-01T03:29:19.991Z,101130.99
2019-06-01T03:31:50.887Z,101133.34
2019-06-01T03:34:21.631Z,101133.37
2019-06-01T03:36:56.024Z,101137.39
2019-06-01T03:39:25.397Z,101136.39
2019-06-01T03:41:56.982Z,101133.00
2019-06-01T03:44:27.735Z,101126.13
2019-06-01T03:46:58.765Z,101118.54
2019-06-01T03:49:29.441Z,101117.20
2019-06-01T03:52:00.589Z,101122.23
2019-06-01T03:54:31.731Z,101119.16
2019-06-01T03:57:03.751Z,101125.52
2019-06-01T03:59:36.429Z,101126.05
2019-06-01T04:02:07.153Z,101124.19
2019-06-01T04:04:38.100Z,101122.81
2019-06-01T04:07:08.803Z,101125.30
2019-06-01T04:09:39.495Z,101134.66
2019-06-01T04:12:11.774Z,101140.84
2019-06-01T04:14:43.020Z,101129.00
2019-06-01T04:17:13.688Z,101124.38
2019-06-01T04:19:44.713Z,101125.94
2019-06-01T04:22:15.462Z,101127.87
2019-06-01T04:24:47.607Z,101128.25
2019-06-01T04:27:18.363Z,101124.38
2019-06-01T04:29:49.315Z,101122.25
2019-06-01T04:32:20.288Z,101118.44
2019-06-01T04:34:51.377Z,101125.58
2019-06-01T04:37:22.063Z,101124.77
2019-06-01T04:39:53.269Z,101129.43
2019-06-01T04:42:24.262Z,101124.08
2019-06-01T04:44:55.303Z,101126.72
2019-06-01T04:47:26.320Z,101130.58
2019-06-01T04:49:58.054Z,101129.55
2019-06-01T04:52:29.042Z,101134.25
2019-06-01T04:55:00.304Z,101136.27
2019-06-01T04:57:31.000Z,101127.48
2019-06-01T05:00:03.546Z,101130.41
2019-06-01T05:02:34.391Z,101128.81
2019-06-01T05:05:09.291Z,101135.32
2019-06-01T05:07:40.411Z,101127.39
2019-06-01T05:10:11.685Z,101129.77
2019-06-01T05:12:42.473Z,101132.50
2019-06-01T05:15:16.062Z,101136.02
2019-06-01T05:17:47.253Z,101136.08
2019-06-01T05:20:19.671Z,101133.13
2019-06-01T05:22:50.322Z,101126.11
2019-06-01T05:25:21.195Z,101126.08
2019-06-01T05:27:52.194Z,101127.06
2019-06-01T05:30:26.315Z,101124.91
2019-06-01T05:32:57.266Z,101118.34
2019-06-01T05:35:28.331Z,101119.21
2019-06-01T05:37:59.105Z,101123.08
2019-06-01T05:40:30.217Z,101120.56
2019-06-01T05:43:01.234Z,101120.47
2019-06-01T05:45:32.195Z,101115.56
2019-06-01T05:48:02.995Z,101117.16
2019-06-01T05:50:33.790Z,101109.84
2019-06-01T05:53:04.746Z,101108.37
2019-06-01T05:55:35.403Z,101112.04
2019-06-01T05:58:06.439Z,101114.00
2019-06-01T06:00:41.148Z,101110.75
2019-06-01T06:03:14.644Z,101111.06
2019-06-01T06:05:44.786Z,101108.66
2019-06-01T06:08:16.429Z,101112.08
2019-06-01T06:10:47.114Z,101108.95
2019-06-01T06:13:19.311Z,101110.69
2019-06-01T06:15:50.560Z,101106.84
2019-06-01T06:18:22.019Z,101110.11
2019-06-01T06:20:53.189Z,101105.97
2019-06-01T06:23:24.236Z,101104.33
2019-06-01T06:25:55.357Z,101109.90
2019-06-01T06:28:26.829Z,101081.02
2019-06-01T06:30:57.849Z,101106.90
2019-06-01T06:33:28.851Z,101103.11
2019-06-01T06:35:59.679Z,101105.79
2019-06-01T06:38:30.359Z,101102.17
2019-06-01T06:41:01.373Z,101106.89
2019-06-01T06:43:33.331Z,101105.89
2019-06-01T06:46:04.337Z,101105.13
2019-06-01T06:48:35.319Z,101102.70
2019-06-01T06:51:06.139Z,101105.58
2019-06-01T06:53:36.882Z,101098.92
2019-06-01T06:56:07.947Z,101104.32
2019-06-01T06:58:38.635Z,101100.10
2019-06-01T07:01:11.999Z,101095.20
2019-06-01T07:03:41.970Z,101102.90
2019-06-01T07:06:12.630Z,101095.83
2019-06-01T07:08:43.330Z,101096.73
2019-06-01T07:11:14.011Z,101102.44
2019-06-01T07:13:44.685Z,101103.00
2019-06-01T07:16:15.641Z,101101.99
2019-06-01T07:18:46.340Z,101109.21
2019-06-01T07:21:17.027Z,101101.63
2019-06-01T07:23:47.970Z,101099.92
2019-06-01T07:26:19.876Z,101100.14
2019-06-01T07:28:51.902Z,101095.69
2019-06-01T07:31:24.155Z,101094.16
2019-06-01T07:33:54.873Z,101099.42
2019-06-01T07:36:26.720Z,101094.11
2019-06-01T07:38:57.817Z,101094.23
2019-06-01T07:41:28.870Z,101082.37
2019-06-01T07:43:59.884Z,101084.78
2019-06-01T07:46:30.557Z,101078.22
2019-06-01T07:49:01.536Z,101080.05
2019-06-01T07:51:32.195Z,101074.27
2019-06-01T07:54:03.205Z,101077.53
2019-06-01T07:56:33.876Z,101078.89
2019-06-01T07:59:04.926Z,101074.33
2019-06-01T08:01:35.664Z,101073.32
2019-06-01T08:04:06.336Z,101069.91
2019-06-01T08:06:43.921Z,101089.87
2019-06-01T08:09:09.950Z,101105.87
2019-06-01T08:11:40.903Z,101106.09
2019-06-01T08:14:11.794Z,101102.52
2019-06-01T08:16:43.451Z,101100.03
2019-06-01T08:19:14.417Z,101097.35
2019-06-01T08:21:45.386Z,101097.21
2019-06-01T08:24:16.462Z,101059.89
2019-06-01T08:26:47.509Z,101051.99
2019-06-01T08:29:18.205Z,101050.25
2019-06-01T08:31:49.217Z,101044.94
2019-06-01T08:34:20.152Z,101050.37
2019-06-01T08:36:51.264Z,101042.04
2019-06-01T08:39:23.365Z,101038.08
2019-06-01T08:41:54.209Z,101046.22
2019-06-01T08:44:25.458Z,101045.06
2019-06-01T08:46:56.189Z,101038.11
2019-06-01T08:49:28.028Z,101044.02
2019-06-01T08:51:58.817Z,101036.63
2019-06-01T08:54:30.282Z,101041.31
2019-06-01T08:57:01.616Z,101041.75
2019-06-01T08:59:32.630Z,101036.53
2019-06-01T09:02:03.865Z,101027.75
2019-06-01T09:04:34.971Z,101030.41
2019-06-01T09:07:06.117Z,101025.59
2019-06-01T09:09:36.819Z,101013.92
2019-06-01T09:12:07.944Z,101013.63
2019-06-01T09:14:38.702Z,101067.87
2019-06-01T09:17:09.676Z,101024.47
2019-06-01T09:19:40.658Z,101022.56
2019-06-01T09:22:11.591Z,101022.55
2019-06-01T09:24:42.569Z,101024.23
2019-06-01T09:27:14.294Z,101021.19
2019-06-01T09:29:45.286Z,101021.03
2019-06-01T09:32:16.205Z,101030.29
2019-06-01T09:34:46.933Z,101035.20
2019-06-01T09:37:17.892Z,101029.22
2019-06-01T09:39:48.625Z,101030.70
2019-06-01T09:42:19.625Z,101025.92
2019-06-01T09:44:50.305Z,101016.47
2019-06-01T09:47:22.249Z,101014.41
2019-06-01T09:49:53.168Z,101013.23
2019-06-01T09:52:23.877Z,101018.90
2019-06-01T09:54:54.536Z,101014.06
2019-06-01T09:57:25.496Z,101070.84
2019-06-01T09:59:56.231Z,101070.89
2019-06-01T10:02:28.056Z,101072.52
2019-06-01T10:04:58.813Z,101070.87
2019-06-01T10:07:30.848Z,101069.75
2019-06-01T10:10:02.682Z,101074.50
2019-06-01T10:12:33.935Z,101073.16
2019-06-01T10:15:06.106Z,101085.30
2019-06-01T10:17:37.151Z,101016.80
2019-06-01T10:20:09.686Z,101012.00
2019-06-01T10:22:41.687Z,101002.37
2019-06-01T10:25:13.455Z,101063.98
2019-06-01T10:27:44.489Z,101035.41
2019-06-01T10:30:15.825Z,101059.06
2019-06-01T10:32:46.863Z,101057.06
2019-06-01T10:35:17.953Z,101052.38
2019-06-01T10:37:48.651Z,101051.52
2019-06-01T10:40:19.466Z,100976.95
2019-06-01T10:42:50.447Z,100984.77
2019-06-01T10:45:21.501Z,100980.97
2019-06-01T10:47:52.170Z,100975.38
2019-06-01T10:50:23.134Z,100968.29
2019-06-01T10:52:54.100Z,100971.28
2019-06-01T10:55:25.133Z,100961.96
2019-06-01T10:57:57.120Z,100970.23
2019-06-01T11:00:39.753Z,100957.58
2019-06-01T11:03:00.798Z,100957.59
2019-06-01T11:05:32.550Z,100961.02
2019-06-01T11:08:03.625Z,100954.73
2019-06-01T11:10:34.940Z,100952.19
2019-06-01T11:13:05.932Z,100944.13
2019-06-01T11:15:37.000Z,100954.27
2019-06-01T11:18:07.994Z,100944.56
2019-06-01T11:20:39.385Z,100942.28
2019-06-01T11:23:10.098Z,100946.57
2019-06-01T11:25:41.677Z,100937.23
2019-06-01T11:28:12.696Z,100942.70
2019-06-01T11:30:43.950Z,100936.69
2019-06-01T11:33:15.033Z,100938.00
2019-06-01T11:35:45.976Z,100934.95
2019-06-01T11:38:19.610Z,100929.81
2019-06-01T11:40:50.536Z,100927.02
2019-06-01T11:43:22.186Z,100925.64
2019-06-01T11:45:53.149Z,100925.08
2019-06-01T11:48:23.859Z,100927.17
2019-06-01T11:50:54.801Z,100926.70
2019-06-01T11:53:25.819Z,100926.96
2019-06-01T11:55:57.389Z,100927.17
2019-06-01T11:58:28.131Z,100922.75
2019-06-01T12:00:58.820Z,100923.97
2019-06-01T12:03:29.492Z,100913.09
2019-06-01T12:06:01.440Z,100915.08
2019-06-01T12:08:34.082Z,100913.73
2019-06-01T12:11:05.200Z,100917.30
2019-06-01T12:13:36.159Z,100916.22
2019-06-01T12:16:07.110Z,100912.46
2019-06-01T12:18:38.515Z,100903.12
2019-06-01T12:21:10.436Z,100898.46
2019-06-01T12:23:41.574Z,100896.70
2019-06-01T12:26:12.258Z,100889.52
2019-06-01T12:28:43.819Z,100892.50
2019-06-01T12:31:14.615Z,100893.20
2019-06-01T12:33:46.586Z,100884.98
2019-06-01T12:36:17.281Z,100884.00
2019-06-01T12:38:52.376Z,100880.42
2019-06-01T12:41:25.338Z,100880.92
2019-06-01T12:44:08.109Z,100877.94
2019-06-01T12:46:39.939Z,100871.98
2019-06-01T12:49:11.743Z,100873.31
2019-06-01T12:51:44.391Z,100870.54
2019-06-01T12:54:15.863Z,100862.31
2019-06-01T12:56:47.842Z,100866.34
2019-06-01T12:59:19.336Z,100863.06
2019-06-01T13:01:51.292Z,100853.66
2019-06-01T13:04:22.317Z,100860.55
2019-06-01T13:06:54.172Z,100854.86
2019-06-01T13:09:25.224Z,100848.43
2019-06-01T13:11:55.947Z,100847.98
2019-06-01T13:14:26.620Z,100837.17
2019-06-01T13:17:06.812Z,100837.27
2019-06-01T13:19:30.259Z,100839.88
2019-06-01T13:22:01.051Z,100840.66
2019-06-01T13:24:32.589Z,100807.84
2019-06-01T13:27:03.544Z,100825.02
2019-06-01T13:29:34.635Z,100816.27
2019-06-01T13:32:05.460Z,100819.50
2019-06-01T13:34:36.448Z,100816.56
2019-06-01T13:37:07.489Z,100815.16
2019-06-01T13:39:38.250Z,100809.97
2019-06-01T13:42:09.177Z,100800.95
2019-06-01T13:44:40.126Z,100792.12
2019-06-01T13:47:10.816Z,100797.14
2019-06-01T13:49:41.480Z,100793.07
2019-06-01T13:52:12.187Z,100792.20
2019-06-01T13:54:44.063Z,100785.06
2019-06-01T13:57:14.846Z,100784.52
2019-06-01T13:59:46.884Z,100785.64
2019-06-01T14:02:17.574Z,100789.62
2019-06-01T14:04:49.810Z,100775.18
2019-06-01T14:07:20.814Z,100787.30
2019-06-01T14:09:52.150Z,100777.20
2019-06-01T14:12:23.962Z,100773.92
2019-06-01T14:14:55.593Z,100771.19
2019-06-01T14:17:26.772Z,100777.53
2019-06-01T14:19:57.470Z,100771.22
2019-06-01T14:22:28.166Z,100773.23
2019-06-01T14:25:10.452Z,100772.73
2019-06-01T14:27:31.237Z,100767.84
2019-06-01T14:30:02.306Z,100765.20
2019-06-01T14:32:34.342Z,100761.41
2019-06-01T14:35:07.810Z,100754.49
2019-06-01T14:37:38.767Z,100760.80
2019-06-01T14:40:11.001Z,100759.61
2019-06-01T14:42:42.094Z,100763.83
2019-06-01T14:45:13.543Z,100755.36
2019-06-01T14:47:47.082Z,100761.12
2019-06-01T14:50:18.130Z,100757.30
2019-06-01T14:52:49.609Z,100756.88
2019-06-01T14:55:20.756Z,100753.16
2019-06-01T14:57:52.421Z,100756.47
2019-06-01T15:00:23.720Z,100750.53
2019-06-01T15:02:54.852Z,100746.92
2019-06-01T15:05:25.550Z,100748.83
2019-06-01T15:07:57.047Z,100752.91
2019-06-01T15:10:28.343Z,100748.91
2019-06-01T15:13:03.028Z,100748.00
2019-06-01T15:15:31.747Z,100741.61
2019-06-01T15:18:05.118Z,100745.80
2019-06-01T15:20:35.261Z,100741.16
2019-06-01T15:23:06.269Z,100737.05
2019-06-01T15:25:36.957Z,100737.95
2019-06-01T15:28:07.635Z,100737.95
2019-06-01T15:30:38.585Z,100737.95
2019-06-01T15:33:09.382Z,100739.25
2019-06-01T15:35:40.373Z,100738.20
2019-06-01T15:38:11.117Z,100740.91
2019-06-01T15:40:42.125Z,100731.56
2019-06-01T15:43:13.068Z,100729.86
2019-06-01T15:45:44.131Z,100731.09
2019-06-01T15:48:14.901Z,100731.34
2019-06-01T15:50:45.550Z,100729.20
2019-06-01T15:53:16.256Z,100727.63
2019-06-01T15:55:47.259Z,100735.80
2019-06-01T15:58:18.470Z,100729.20
2019-06-01T16:00:49.476Z,100731.34
2019-06-01T16:03:20.465Z,100729.78
2019-06-01T16:05:52.922Z,100724.05
2019-06-01T16:08:23.670Z,100717.41
2019-06-01T16:10:55.199Z,100708.23
2019-06-01T16:13:26.273Z,100713.16
2019-06-01T16:15:58.448Z,100715.22
2019-06-01T16:18:29.544Z,100709.50
2019-06-01T16:21:00.613Z,100711.27
2019-06-01T16:23:46.207Z,100709.02
2019-06-01T16:26:15.159Z,100710.63
2019-06-01T16:28:36.428Z,100709.30
2019-06-01T16:31:07.104Z,100712.23
2019-06-01T16:33:37.781Z,100713.12
2019-06-01T16:36:08.791Z,100708.91
2019-06-01T16:38:40.876Z,100706.93
2019-06-01T16:41:11.576Z,100708.78
2019-06-01T16:43:42.254Z,100702.43
2019-06-01T16:46:12.933Z,100703.08
2019-06-01T16:48:44.049Z,100699.69
2019-06-01T16:51:14.715Z,100698.37
2019-06-01T16:53:45.366Z,100697.61
2019-06-01T16:56:16.060Z,100693.31
2019-06-01T16:58:46.778Z,100695.75
2019-06-01T17:01:17.455Z,100692.20
2019-06-01T17:03:48.421Z,100689.99
2019-06-01T17:06:19.462Z,100691.95
2019-06-01T17:08:50.160Z,100687.84
2019-06-01T17:11:21.227Z,100688.99
2019-06-01T17:16:22.221Z,100685.02
2019-06-01T17:18:53.380Z,100693.77
2019-06-01T17:21:24.517Z,100689.53
2019-06-01T17:23:55.743Z,100690.05
2019-06-01T17:26:26.417Z,100689.30
2019-06-01T17:28:58.036Z,100691.05
2019-06-01T17:31:28.829Z,100690.52
2019-06-01T17:34:00.644Z,100691.05
2019-06-01T17:36:31.615Z,100689.44
2019-06-01T17:39:03.717Z,100691.49
2019-06-01T17:41:34.805Z,100687.38
2019-06-01T17:44:13.184Z,100689.77
2019-06-01T17:46:53.633Z,100686.55
2019-06-01T17:49:16.663Z,100683.73
2019-06-01T17:51:47.331Z,100684.58
2019-06-01T17:54:18.067Z,100683.69
2019-06-01T17:56:49.065Z,100685.34
2019-06-01T17:59:21.235Z,100684.28
2019-06-01T18:01:52.252Z,100674.13
2019-06-01T18:04:24.253Z,100679.20
2019-06-01T18:06:55.273Z,100676.27
2019-06-01T18:09:26.313Z,100684.15
2019-06-01T18:11:57.357Z,100681.74
2019-06-01T18:14:28.371Z,100682.93
2019-06-01T18:16:59.409Z,100683.88
2019-06-01T18:19:30.373Z,100684.30
2019-06-01T18:22:01.068Z,100686.48
2019-06-01T18:24:32.047Z,100688.20
2019-06-01T18:27:02.759Z,100691.44
2019-06-01T18:29:33.484Z,100684.48
2019-06-01T18:32:05.771Z,100690.66
2019-06-01T18:34:37.202Z,100695.31
2019-06-01T18:37:09.215Z,100691.52
2019-06-01T18:39:40.118Z,100695.82
2019-06-01T18:42:12.356Z,100697.23
2019-06-01T18:44:43.458Z,100697.91
2019-06-01T18:47:31.278Z,100699.52
2019-06-01T18:49:48.370Z,100698.59
2019-06-01T18:52:19.400Z,100694.67
2019-06-01T18:54:50.090Z,100702.72
2019-06-01T18:57:21.755Z,100701.25
2019-06-01T18:59:52.863Z,100693.77
2019-06-01T19:02:23.572Z,100692.84
2019-06-01T19:04:54.638Z,100697.92
2019-06-01T19:07:25.304Z,100700.01
2019-06-01T19:09:56.279Z,100703.42
2019-06-01T19:12:27.249Z,100706.72
2019-06-01T19:14:57.973Z,100710.70
2019-06-01T19:17:29.135Z,100708.61
2019-06-01T19:19:59.817Z,100710.69
2019-06-01T19:22:30.876Z,100708.20
2019-06-01T19:25:02.404Z,100716.38
2019-06-01T19:27:34.039Z,100715.09
2019-06-01T19:30:08.880Z,100719.48
2019-06-01T19:32:40.578Z,100722.08
2019-06-01T19:35:13.566Z,100720.55
2019-06-01T19:37:44.643Z,100719.06
2019-06-01T19:40:20.264Z,100729.38
2019-06-01T19:42:51.104Z,100728.25
2019-06-01T19:45:28.851Z,100737.19
2019-06-01T19:47:54.595Z,100734.53
2019-06-01T19:50:25.769Z,100730.78
2019-06-01T19:52:57.064Z,100740.00
2019-06-01T19:55:27.836Z,100739.97
2019-06-01T19:57:58.559Z,100735.96
2019-06-01T20:00:31.020Z,100741.77
2019-06-01T20:03:02.188Z,100742.02
2019-06-01T20:05:33.020Z,100746.78
2019-06-01T20:08:03.691Z,100748.08
2019-06-01T20:10:34.513Z,100751.41
2019-06-01T20:13:05.340Z,100753.96
2019-06-01T20:15:36.329Z,100749.14
2019-06-01T20:18:07.292Z,100756.53
2019-06-01T20:20:38.337Z,100756.38
2019-06-01T20:23:09.560Z,100759.34
2019-06-01T20:25:40.580Z,100754.85
2019-06-01T20:28:11.870Z,100757.38
2019-06-01T20:30:44.141Z,100759.20
2019-06-01T20:33:15.990Z,100756.38
2019-06-01T20:35:47.019Z,100757.40
2019-06-01T20:38:18.483Z,100759.41
2019-06-01T20:40:49.784Z,100766.05
2019-06-01T20:43:20.910Z,100766.19
2019-06-01T20:45:56.665Z,100721.06
2019-06-01T20:48:26.676Z,100767.56
2019-06-01T20:50:57.593Z,100767.83
2019-06-01T20:53:28.533Z,100765.64
2019-06-01T20:55:59.516Z,100767.31
2019-06-01T20:58:30.588Z,100771.43
2019-06-01T21:01:01.283Z,100771.38
2019-06-01T21:03:32.590Z,100766.21
2019-06-01T21:06:03.279Z,100769.83
2019-06-01T21:08:34.048Z,100768.61
2019-06-01T21:11:05.176Z,100766.34
2019-06-01T21:13:36.191Z,100766.59
2019-06-01T21:16:06.899Z,100766.84
2019-06-01T21:18:37.619Z,100775.09
2019-06-01T21:21:09.275Z,100777.09
2019-06-01T21:23:39.980Z,100776.88
2019-06-01T21:26:10.997Z,100773.98
2019-06-01T21:28:41.686Z,100777.25
2019-06-01T21:31:12.795Z,100777.77
2019-06-01T21:33:43.755Z,100777.89
2019-06-01T21:36:15.238Z,100772.42
2019-06-01T21:38:46.337Z,100778.12
2019-06-01T21:41:17.452Z,100773.75
2019-06-01T21:43:48.567Z,100778.24
2019-06-01T21:46:19.710Z,100774.42
2019-06-01T21:48:50.403Z,100774.94
2019-06-01T21:51:21.842Z,100775.37
2019-06-01T21:53:52.575Z,100773.81
2019-06-01T21:56:25.253Z,100772.08
2019-06-01T21:58:57.331Z,100774.06
2019-06-01T22:01:28.414Z,100776.45
2019-06-01T22:03:59.390Z,100771.04
2019-06-01T22:06:30.174Z,100775.95
2019-06-01T22:09:00.874Z,100781.16
2019-06-01T22:11:33.459Z,100779.91
2019-06-01T22:14:04.675Z,100775.25
2019-06-01T22:16:35.603Z,100777.33
2019-06-01T22:19:06.651Z,100774.22
2019-06-01T22:21:37.637Z,100776.51
2019-06-01T22:24:08.619Z,100774.30
2019-06-01T22:26:39.605Z,100777.71
2019-06-01T22:29:10.552Z,100781.15
2019-06-01T22:31:41.544Z,100778.12
2019-06-01T22:34:12.488Z,100778.95
2019-06-01T22:36:43.196Z,100778.85
2019-06-01T22:39:15.258Z,100781.14
2019-06-01T22:41:47.840Z,100783.20
2019-06-01T22:44:18.648Z,100779.14
2019-06-01T22:46:50.747Z,100782.55
2019-06-01T22:49:24.733Z,100781.62
2019-06-01T22:51:55.987Z,100781.30
2019-06-01T22:54:27.768Z,100781.30
2019-06-01T22:56:58.808Z,100782.46
2019-06-01T22:59:29.634Z,100782.87
2019-06-01T23:02:00.624Z,100777.34
2019-06-01T23:04:31.547Z,100780.69
2019-06-01T23:07:02.699Z,100774.32
2019-06-01T23:09:33.665Z,100780.97
2019-06-01T23:12:04.595Z,100781.67
2019-06-01T23:14:35.654Z,100785.11
2019-06-01T23:17:06.423Z,100779.06
2019-06-01T23:19:37.394Z,100779.48
2019-06-01T23:22:08.365Z,100774.91
2019-06-01T23:24:39.703Z,100778.82
2019-06-01T23:27:10.408Z,100774.34
2019-06-01T23:29:41.696Z,100776.86
2019-06-01T23:32:12.691Z,100771.78
2019-06-01T23:34:43.354Z,100766.56
2019-06-01T23:37:14.057Z,100759.89
2019-06-01T23:39:44.876Z,100760.59
2019-06-01T23:42:16.248Z,100759.84
2019-06-01T23:44:47.223Z,100766.58
2019-06-01T23:47:17.959Z,100765.16
2019-06-01T23:49:48.742Z,100766.83
2019-06-01T23:52:19.684Z,100764.62
2019-06-01T23:54:50.590Z,100763.00
2019-06-01T23:57:21.547Z,100765.27
2019-06-01T23:59:53.475Z,100766.19
